sensor_id;sensor_type;location;lat;lon;timestamp;temperature;humidity
20815;DHT22;10568;48.176;16.316;2023-07-08T00:00:54;15.60;99.90
20815;DHT22;10568;48.176;16.316;2023-07-08T00:03:21;15.60;99.90
20815;DHT22;10568;48.176;16.316;2023-07-08T00:05:48;15.60;99.90
20815;DHT22;10568;48.176;16.316;2023-07-08T00:08:17;15.50;99.90
20815;DHT22;10568;48.176;16.316;2023-07-08T00:10:43;15.50;99.90
20815;DHT22;10568;48.176;16.316;2023-07-08T00:13:10;15.50;99.90
20815;DHT22;10568;48.176;16.316;2023-07-08T00:15:36;15.50;99.90
20815;DHT22;10568;48.176;16.316;2023-07-08T00:18:14;15.50;99.90
20815;DHT22;10568;48.176;16.316;2023-07-08T00:20:41;15.50;99.90
20815;DHT22;10568;48.176;16.316;2023-07-08T00:23:09;15.40;99.90
20815;DHT22;10568;48.176;16.316;2023-07-08T00:25:34;15.40;99.90
20815;DHT22;10568;48.176;16.316;2023-07-08T00:28:00;15.40;99.90
20815;DHT22;10568;48.176;16.316;2023-07-08T00:30:28;15.40;99.90
20815;DHT22;10568;48.176;16.316;2023-07-08T00:32:55;15.40;99.90
20815;DHT22;10568;48.176;16.316;2023-07-08T00:35:41;15.30;99.90
20815;DHT22;10568;48.176;16.316;2023-07-08T00:38:27;15.30;99.90
20815;DHT22;10568;48.176;16.316;2023-07-08T00:51:36;15.10;99.90
20815;DHT22;10568;48.176;16.316;2023-07-08T00:54:04;15.10;99.90
20815;DHT22;10568;48.176;16.316;2023-07-08T00:56:38;15.10;99.90
20815;DHT22;10568;48.176;16.316;2023-07-08T00:59:13;15.10;99.90
20815;DHT22;10568;48.176;16.316;2023-07-08T01:01:43;15.10;99.90
20815;DHT22;10568;48.176;16.316;2023-07-08T01:04:14;15.00;99.90
20815;DHT22;10568;48.176;16.316;2023-07-08T01:06:43;14.90;99.90
20815;DHT22;10568;48.176;16.316;2023-07-08T01:09:12;14.90;99.90
20815;DHT22;10568;48.176;16.316;2023-07-08T01:11:40;14.90;99.90
20815;DHT22;10568;48.176;16.316;2023-07-08T01:14:09;14.90;99.90
20815;DHT22;10568;48.176;16.316;2023-07-08T01:16:37;14.80;99.90
20815;DHT22;10568;48.176;16.316;2023-07-08T01:19:04;14.80;99.90
20815;DHT22;10568;48.176;16.316;2023-07-08T01:21:39;14.70;99.90
20815;DHT22;10568;48.176;16.316;2023-07-08T01:24:08;14.70;99.90
20815;DHT22;10568;48.176;16.316;2023-07-08T01:26:38;14.60;99.90
20815;DHT22;10568;48.176;16.316;2023-07-08T01:29:06;14.60;99.90
20815;DHT22;10568;48.176;16.316;2023-07-08T01:31:33;14.60;99.90
20815;DHT22;10568;48.176;16.316;2023-07-08T01:34:00;14.60;99.90
20815;DHT22;10568;48.176;16.316;2023-07-08T01:36:30;14.50;99.90
20815;DHT22;10568;48.176;16.316;2023-07-08T01:38:56;14.50;99.90
20815;DHT22;10568;48.176;16.316;2023-07-08T01:41:22;14.50;99.90
20815;DHT22;10568;48.176;16.316;2023-07-08T01:43:48;14.40;99.90
20815;DHT22;10568;48.176;16.316;2023-07-08T01:46:24;14.40;99.90
20815;DHT22;10568;48.176;16.316;2023-07-08T01:48:54;14.40;99.90
20815;DHT22;10568;48.176;16.316;2023-07-08T01:51:23;14.30;99.90
20815;DHT22;10568;48.176;16.316;2023-07-08T01:53:49;14.30;99.90
20815;DHT22;10568;48.176;16.316;2023-07-08T01:56:15;14.20;99.90
20815;DHT22;10568;48.176;16.316;2023-07-08T01:58:41;14.20;99.90
20815;DHT22;10568;48.176;16.316;2023-07-08T02:01:07;14.20;99.90
20815;DHT22;10568;48.176;16.316;2023-07-08T02:03:33;14.10;99.90
20815;DHT22;10568;48.176;16.316;2023-07-08T02:05:59;14.10;99.90
20815;DHT22;10568;48.176;16.316;2023-07-08T02:08:25;14.00;99.90
20815;DHT22;10568;48.176;16.316;2023-07-08T02:10:56;14.00;99.90
20815;DHT22;10568;48.176;16.316;2023-07-08T02:13:22;14.00;99.90
20815;DHT22;10568;48.176;16.316;2023-07-08T02:15:49;14.00;99.90
20815;DHT22;10568;48.176;16.316;2023-07-08T02:18:15;13.90;99.90
20815;DHT22;10568;48.176;16.316;2023-07-08T02:20:44;13.90;99.90
20815;DHT22;10568;48.176;16.316;2023-07-08T02:23:10;13.90;99.90
20815;DHT22;10568;48.176;16.316;2023-07-08T02:25:36;13.90;99.90
20815;DHT22;10568;48.176;16.316;2023-07-08T02:28:03;13.80;99.90
20815;DHT22;10568;48.176;16.316;2023-07-08T02:30:29;13.80;99.90
20815;DHT22;10568;48.176;16.316;2023-07-08T02:32:55;13.80;99.90
20815;DHT22;10568;48.176;16.316;2023-07-08T02:35:28;13.80;99.90
20815;DHT22;10568;48.176;16.316;2023-07-08T02:37:55;13.80;99.90
20815;DHT22;10568;48.176;16.316;2023-07-08T02:40:22;13.70;99.90
20815;DHT22;10568;48.176;16.316;2023-07-08T02:46:10;13.70;99.90
20815;DHT22;10568;48.176;16.316;2023-07-08T02:48:36;13.60;99.90
20815;DHT22;10568;48.176;16.316;2023-07-08T02:51:03;13.60;99.90
20815;DHT22;10568;48.176;16.316;2023-07-08T02:53:29;13.60;99.90
20815;DHT22;10568;48.176;16.316;2023-07-08T02:55:56;13.60;99.90
20815;DHT22;10568;48.176;16.316;2023-07-08T02:58:22;13.60;99.90
20815;DHT22;10568;48.176;16.316;2023-07-08T03:00:55;13.60;99.90
20815;DHT22;10568;48.176;16.316;2023-07-08T03:03:21;13.60;99.90
20815;DHT22;10568;48.176;16.316;2023-07-08T03:05:56;13.60;99.90
20815;DHT22;10568;48.176;16.316;2023-07-08T03:08:22;13.50;99.90
20815;DHT22;10568;48.176;16.316;2023-07-08T03:10:53;13.50;99.90
20815;DHT22;10568;48.176;16.316;2023-07-08T03:13:19;13.50;99.90
20815;DHT22;10568;48.176;16.316;2023-07-08T03:15:45;13.50;99.90
20815;DHT22;10568;48.176;16.316;2023-07-08T03:18:11;13.50;99.90
20815;DHT22;10568;48.176;16.316;2023-07-08T03:20:39;13.50;99.90
20815;DHT22;10568;48.176;16.316;2023-07-08T03:23:05;13.40;99.90
20815;DHT22;10568;48.176;16.316;2023-07-08T03:25:31;13.40;99.90
20815;DHT22;10568;48.176;16.316;2023-07-08T03:27:57;13.40;99.90
20815;DHT22;10568;48.176;16.316;2023-07-08T03:30:23;13.40;99.90
20815;DHT22;10568;48.176;16.316;2023-07-08T03:32:49;13.40;99.90
20815;DHT22;10568;48.176;16.316;2023-07-08T03:35:15;13.40;99.90
20815;DHT22;10568;48.176;16.316;2023-07-08T03:37:41;13.50;99.90
20815;DHT22;10568;48.176;16.316;2023-07-08T03:40:08;13.50;99.90
20815;DHT22;10568;48.176;16.316;2023-07-08T03:42:35;13.40;99.90
20815;DHT22;10568;48.176;16.316;2023-07-08T03:45:01;13.40;99.90
20815;DHT22;10568;48.176;16.316;2023-07-08T03:47:27;13.50;99.90
20815;DHT22;10568;48.176;16.316;2023-07-08T03:49:52;13.50;99.90
20815;DHT22;10568;48.176;16.316;2023-07-08T03:52:18;13.50;99.90
20815;DHT22;10568;48.176;16.316;2023-07-08T03:54:44;13.50;99.90
20815;DHT22;10568;48.176;16.316;2023-07-08T03:57:15;13.60;99.90
20815;DHT22;10568;48.176;16.316;2023-07-08T03:59:43;13.60;99.90
20815;DHT22;10568;48.176;16.316;2023-07-08T04:02:13;13.60;99.90
20815;DHT22;10568;48.176;16.316;2023-07-08T04:04:39;13.60;99.90
20815;DHT22;10568;48.176;16.316;2023-07-08T04:07:05;13.70;99.90
20815;DHT22;10568;48.176;16.316;2023-07-08T04:09:31;13.70;99.90
20815;DHT22;10568;48.176;16.316;2023-07-08T04:11:57;13.70;99.90
20815;DHT22;10568;48.176;16.316;2023-07-08T04:14:25;13.80;99.90
20815;DHT22;10568;48.176;16.316;2023-07-08T04:16:54;13.80;99.90
20815;DHT22;10568;48.176;16.316;2023-07-08T04:19:22;13.80;99.90
20815;DHT22;10568;48.176;16.316;2023-07-08T04:21:53;13.90;99.90
20815;DHT22;10568;48.176;16.316;2023-07-08T04:24:25;13.90;99.90
20815;DHT22;10568;48.176;16.316;2023-07-08T04:26:50;14.00;99.90
20815;DHT22;10568;48.176;16.316;2023-07-08T04:29:20;14.10;99.90
20815;DHT22;10568;48.176;16.316;2023-07-08T04:31:46;14.10;99.90
20815;DHT22;10568;48.176;16.316;2023-07-08T04:34:12;14.20;99.90
20815;DHT22;10568;48.176;16.316;2023-07-08T04:36:38;14.30;99.90
20815;DHT22;10568;48.176;16.316;2023-07-08T04:39:06;14.30;99.90
20815;DHT22;10568;48.176;16.316;2023-07-08T04:41:32;14.40;99.90
20815;DHT22;10568;48.176;16.316;2023-07-08T04:43:58;14.50;99.90
20815;DHT22;10568;48.176;16.316;2023-07-08T04:46:38;14.50;99.90
20815;DHT22;10568;48.176;16.316;2023-07-08T04:49:08;14.60;99.90
20815;DHT22;10568;48.176;16.316;2023-07-08T04:51:35;14.70;99.90
20815;DHT22;10568;48.176;16.316;2023-07-08T04:54:02;14.80;99.90
20815;DHT22;10568;48.176;16.316;2023-07-08T04:59:07;15.00;99.90
20815;DHT22;10568;48.176;16.316;2023-07-08T05:01:33;15.20;99.90
20815;DHT22;10568;48.176;16.316;2023-07-08T05:03:59;15.30;99.90
20815;DHT22;10568;48.176;16.316;2023-07-08T05:06:32;15.40;99.90
20815;DHT22;10568;48.176;16.316;2023-07-08T05:09:06;15.50;99.90
20815;DHT22;10568;48.176;16.316;2023-07-08T05:11:38;15.60;99.90
20815;DHT22;10568;48.176;16.316;2023-07-08T05:14:16;15.60;99.90
20815;DHT22;10568;48.176;16.316;2023-07-08T05:16:45;15.70;99.90
20815;DHT22;10568;48.176;16.316;2023-07-08T05:19:42;15.80;99.90
20815;DHT22;10568;48.176;16.316;2023-07-08T05:22:10;15.90;99.90
20815;DHT22;10568;48.176;16.316;2023-07-08T05:24:42;15.90;99.90
20815;DHT22;10568;48.176;16.316;2023-07-08T05:27:17;16.10;99.90
20815;DHT22;10568;48.176;16.316;2023-07-08T05:29:46;16.20;99.90
20815;DHT22;10568;48.176;16.316;2023-07-08T05:32:12;16.30;99.90
20815;DHT22;10568;48.176;16.316;2023-07-08T05:34:38;16.30;99.90
20815;DHT22;10568;48.176;16.316;2023-07-08T05:37:04;16.50;99.90
20815;DHT22;10568;48.176;16.316;2023-07-08T05:39:31;16.80;99.90
20815;DHT22;10568;48.176;16.316;2023-07-08T05:41:57;16.90;99.90
20815;DHT22;10568;48.176;16.316;2023-07-08T05:44:22;16.90;99.90
20815;DHT22;10568;48.176;16.316;2023-07-08T05:46:49;17.10;99.90
20815;DHT22;10568;48.176;16.316;2023-07-08T05:49:15;17.20;99.90
20815;DHT22;10568;48.176;16.316;2023-07-08T05:51:43;17.30;99.90
20815;DHT22;10568;48.176;16.316;2023-07-08T05:54:08;17.40;99.90
20815;DHT22;10568;48.176;16.316;2023-07-08T05:56:34;17.60;99.90
20815;DHT22;10568;48.176;16.316;2023-07-08T05:59:12;17.70;99.90
20815;DHT22;10568;48.176;16.316;2023-07-08T06:01:40;17.80;99.90
20815;DHT22;10568;48.176;16.316;2023-07-08T06:04:06;18.00;99.90
20815;DHT22;10568;48.176;16.316;2023-07-08T06:06:32;18.10;99.90
20815;DHT22;10568;48.176;16.316;2023-07-08T06:08:58;18.30;99.90
20815;DHT22;10568;48.176;16.316;2023-07-08T06:11:23;18.40;99.90
20815;DHT22;10568;48.176;16.316;2023-07-08T06:13:49;18.60;99.90
20815;DHT22;10568;48.176;16.316;2023-07-08T06:16:15;18.80;99.90
20815;DHT22;10568;48.176;16.316;2023-07-08T06:18:40;19.00;99.90
20815;DHT22;10568;48.176;16.316;2023-07-08T06:21:06;19.10;99.90
20815;DHT22;10568;48.176;16.316;2023-07-08T06:23:32;19.20;99.90
20815;DHT22;10568;48.176;16.316;2023-07-08T06:25:58;19.40;99.90
20815;DHT22;10568;48.176;16.316;2023-07-08T06:28:24;19.60;99.90
20815;DHT22;10568;48.176;16.316;2023-07-08T06:30:49;19.70;99.90
20815;DHT22;10568;48.176;16.316;2023-07-08T06:33:15;20.00;99.90
20815;DHT22;10568;48.176;16.316;2023-07-08T06:35:43;20.20;99.90
20815;DHT22;10568;48.176;16.316;2023-07-08T06:38:10;20.60;99.90
20815;DHT22;10568;48.176;16.316;2023-07-08T06:40:36;20.90;99.90
20815;DHT22;10568;48.176;16.316;2023-07-08T06:43:03;21.10;99.90
20815;DHT22;10568;48.176;16.316;2023-07-08T06:45:29;21.30;99.90
20815;DHT22;10568;48.176;16.316;2023-07-08T06:47:55;21.60;99.90
20815;DHT22;10568;48.176;16.316;2023-07-08T06:50:20;21.70;99.90
20815;DHT22;10568;48.176;16.316;2023-07-08T06:52:46;21.90;99.90
20815;DHT22;10568;48.176;16.316;2023-07-08T06:55:12;22.00;99.90
20815;DHT22;10568;48.176;16.316;2023-07-08T06:57:38;22.00;99.90
20815;DHT22;10568;48.176;16.316;2023-07-08T07:00:06;22.20;99.90
20815;DHT22;10568;48.176;16.316;2023-07-08T07:02:33;22.60;99.90
20815;DHT22;10568;48.176;16.316;2023-07-08T07:04:59;22.80;99.90
20815;DHT22;10568;48.176;16.316;2023-07-08T07:10:46;23.40;99.90
20815;DHT22;10568;48.176;16.316;2023-07-08T07:13:12;23.70;99.90
20815;DHT22;10568;48.176;16.316;2023-07-08T07:15:38;24.00;99.90
20815;DHT22;10568;48.176;16.316;2023-07-08T07:18:04;24.20;99.90
20815;DHT22;10568;48.176;16.316;2023-07-08T07:20:30;24.30;99.90
20815;DHT22;10568;48.176;16.316;2023-07-08T07:22:56;24.50;99.90
20815;DHT22;10568;48.176;16.316;2023-07-08T07:25:21;24.80;99.90
20815;DHT22;10568;48.176;16.316;2023-07-08T07:27:47;25.10;99.90
20815;DHT22;10568;48.176;16.316;2023-07-08T07:30:13;25.30;99.90
20815;DHT22;10568;48.176;16.316;2023-07-08T07:32:41;25.50;99.90
20815;DHT22;10568;48.176;16.316;2023-07-08T07:35:08;25.70;99.90
20815;DHT22;10568;48.176;16.316;2023-07-08T07:37:39;25.80;99.90
20815;DHT22;10568;48.176;16.316;2023-07-08T07:40:08;26.00;99.90
20815;DHT22;10568;48.176;16.316;2023-07-08T07:42:38;26.20;99.90
20815;DHT22;10568;48.176;16.316;2023-07-08T07:45:04;26.20;99.90
20815;DHT22;10568;48.176;16.316;2023-07-08T07:47:30;26.50;99.90
20815;DHT22;10568;48.176;16.316;2023-07-08T07:49:56;26.60;99.90
20815;DHT22;10568;48.176;16.316;2023-07-08T07:52:22;26.70;99.90
20815;DHT22;10568;48.176;16.316;2023-07-08T07:54:54;26.90;99.90
20815;DHT22;10568;48.176;16.316;2023-07-08T07:57:20;27.00;99.90
20815;DHT22;10568;48.176;16.316;2023-07-08T07:59:46;27.00;99.90
20815;DHT22;10568;48.176;16.316;2023-07-08T08:02:12;27.30;99.90
20815;DHT22;10568;48.176;16.316;2023-07-08T08:04:38;27.30;99.90
20815;DHT22;10568;48.176;16.316;2023-07-08T08:07:04;27.40;99.90
20815;DHT22;10568;48.176;16.316;2023-07-08T08:09:30;27.70;99.90
20815;DHT22;10568;48.176;16.316;2023-07-08T08:11:56;27.90;99.90
20815;DHT22;10568;48.176;16.316;2023-07-08T08:14:21;28.20;99.90
20815;DHT22;10568;48.176;16.316;2023-07-08T08:16:47;28.10;99.90
20815;DHT22;10568;48.176;16.316;2023-07-08T08:19:13;28.40;99.90
20815;DHT22;10568;48.176;16.316;2023-07-08T08:21:39;28.60;99.90
20815;DHT22;10568;48.176;16.316;2023-07-08T08:24:05;28.80;99.90
20815;DHT22;10568;48.176;16.316;2023-07-08T08:26:31;28.90;99.90
20815;DHT22;10568;48.176;16.316;2023-07-08T08:28:57;29.10;99.90
20815;DHT22;10568;48.176;16.316;2023-07-08T08:31:23;29.00;99.90
20815;DHT22;10568;48.176;16.316;2023-07-08T08:33:51;29.30;99.90
20815;DHT22;10568;48.176;16.316;2023-07-08T08:36:17;29.30;99.70
20815;DHT22;10568;48.176;16.316;2023-07-08T08:38:43;29.50;99.90
20815;DHT22;10568;48.176;16.316;2023-07-08T08:41:12;29.50;99.90
20815;DHT22;10568;48.176;16.316;2023-07-08T08:43:43;29.70;99.90
20815;DHT22;10568;48.176;16.316;2023-07-08T08:49:13;29.60;99.90
20815;DHT22;10568;48.176;16.316;2023-07-08T08:51:40;29.20;99.90
20815;DHT22;10568;48.176;16.316;2023-07-08T08:54:08;29.60;99.90
20815;DHT22;10568;48.176;16.316;2023-07-08T08:59:51;29.80;99.90
20815;DHT22;10568;48.176;16.316;2023-07-08T09:04:51;30.10;99.90
20815;DHT22;10568;48.176;16.316;2023-07-08T09:07:18;30.20;99.70
20815;DHT22;10568;48.176;16.316;2023-07-08T09:09:54;30.30;96.40
20815;DHT22;10568;48.176;16.316;2023-07-08T09:12:26;30.60;99.90
20815;DHT22;10568;48.176;16.316;2023-07-08T09:14:53;30.80;98.80
20815;DHT22;10568;48.176;16.316;2023-07-08T09:17:32;31.00;99.00
20815;DHT22;10568;48.176;16.316;2023-07-08T09:25:02;31.00;99.90
20815;DHT22;10568;48.176;16.316;2023-07-08T09:27:47;31.30;99.90
20815;DHT22;10568;48.176;16.316;2023-07-08T09:30:16;31.50;99.90
20815;DHT22;10568;48.176;16.316;2023-07-08T09:32:42;31.80;99.90
20815;DHT22;10568;48.176;16.316;2023-07-08T09:35:12;31.40;94.40
20815;DHT22;10568;48.176;16.316;2023-07-08T09:37:46;31.60;93.80
20815;DHT22;10568;48.176;16.316;2023-07-08T09:40:28;31.90;99.30
20815;DHT22;10568;48.176;16.316;2023-07-08T09:46:15;32.10;93.10
20815;DHT22;10568;48.176;16.316;2023-07-08T09:48:41;32.20;98.10
20815;DHT22;10568;48.176;16.316;2023-07-08T09:51:08;32.50;99.50
20815;DHT22;10568;48.176;16.316;2023-07-08T09:53:35;32.60;99.90
20815;DHT22;10568;48.176;16.316;2023-07-08T09:56:03;32.70;97.10
20815;DHT22;10568;48.176;16.316;2023-07-08T09:58:34;32.80;93.20
20815;DHT22;10568;48.176;16.316;2023-07-08T10:01:11;32.90;95.60
20815;DHT22;10568;48.176;16.316;2023-07-08T10:03:38;33.00;94.30
20815;DHT22;10568;48.176;16.316;2023-07-08T10:06:08;32.60;92.50
20815;DHT22;10568;48.176;16.316;2023-07-08T10:08:44;33.00;97.50
20815;DHT22;10568;48.176;16.316;2023-07-08T10:11:12;33.00;96.10
20815;DHT22;10568;48.176;16.316;2023-07-08T10:13:45;33.00;98.10
20815;DHT22;10568;48.176;16.316;2023-07-08T10:16:21;32.70;93.70
20815;DHT22;10568;48.176;16.316;2023-07-08T10:18:48;33.00;92.20
20815;DHT22;10568;48.176;16.316;2023-07-08T10:24:06;33.30;98.20
20815;DHT22;10568;48.176;16.316;2023-07-08T10:26:37;33.30;91.80
20815;DHT22;10568;48.176;16.316;2023-07-08T10:32:07;33.50;90.10
20815;DHT22;10568;48.176;16.316;2023-07-08T10:38:07;33.20;90.00
20815;DHT22;10568;48.176;16.316;2023-07-08T11:05:55;34.20;91.10
20815;DHT22;10568;48.176;16.316;2023-07-08T11:08:15;34.20;94.20
20815;DHT22;10568;48.176;16.316;2023-07-08T11:13:40;34.00;89.10
20815;DHT22;10568;48.176;16.316;2023-07-08T11:19:12;34.20;87.00
20815;DHT22;10568;48.176;16.316;2023-07-08T11:21:46;34.10;87.30
20815;DHT22;10568;48.176;16.316;2023-07-08T11:27:15;34.10;94.20
20815;DHT22;10568;48.176;16.316;2023-07-08T11:29:48;34.40;88.50
20815;DHT22;10568;48.176;16.316;2023-07-08T11:32:19;34.50;85.10
20815;DHT22;10568;48.176;16.316;2023-07-08T11:34:47;34.40;88.30
20815;DHT22;10568;48.176;16.316;2023-07-08T11:37:14;34.40;82.20
20815;DHT22;10568;48.176;16.316;2023-07-08T11:39:44;34.40;78.60
20815;DHT22;10568;48.176;16.316;2023-07-08T11:42:29;34.60;82.60
20815;DHT22;10568;48.176;16.316;2023-07-08T11:44:59;34.30;74.20
20815;DHT22;10568;48.176;16.316;2023-07-08T11:47:26;34.30;75.90
20815;DHT22;10568;48.176;16.316;2023-07-08T11:49:57;34.50;85.00
20815;DHT22;10568;48.176;16.316;2023-07-08T11:52:23;34.50;84.80
20815;DHT22;10568;48.176;16.316;2023-07-08T11:55:12;34.50;84.60
20815;DHT22;10568;48.176;16.316;2023-07-08T11:57:42;34.70;87.70
20815;DHT22;10568;48.176;16.316;2023-07-08T12:00:22;35.00;87.50
20815;DHT22;10568;48.176;16.316;2023-07-08T12:05:29;34.80;72.10
20815;DHT22;10568;48.176;16.316;2023-07-08T12:07:56;35.00;88.00
20815;DHT22;10568;48.176;16.316;2023-07-08T12:10:38;34.80;71.20
20815;DHT22;10568;48.176;16.316;2023-07-08T12:13:12;34.80;76.30
20815;DHT22;10568;48.176;16.316;2023-07-08T12:15:39;34.80;84.20
20815;DHT22;10568;48.176;16.316;2023-07-08T12:18:14;34.80;79.70
20815;DHT22;10568;48.176;16.316;2023-07-08T12:20:48;34.80;76.30
20815;DHT22;10568;48.176;16.316;2023-07-08T12:23:18;35.00;79.90
20815;DHT22;10568;48.176;16.316;2023-07-08T12:25:44;35.00;80.70
20815;DHT22;10568;48.176;16.316;2023-07-08T12:28:11;35.10;69.30
20815;DHT22;10568;48.176;16.316;2023-07-08T12:30:41;35.10;70.40
20815;DHT22;10568;48.176;16.316;2023-07-08T12:33:16;35.30;78.10
20815;DHT22;10568;48.176;16.316;2023-07-08T12:35:45;35.20;75.60
20815;DHT22;10568;48.176;16.316;2023-07-08T12:38:32;34.90;71.60
20815;DHT22;10568;48.176;16.316;2023-07-08T12:41:08;34.60;77.40
20815;DHT22;10568;48.176;16.316;2023-07-08T12:43:34;34.60;68.80
20815;DHT22;10568;48.176;16.316;2023-07-08T12:46:00;34.40;72.30
20815;DHT22;10568;48.176;16.316;2023-07-08T12:48:32;34.40;68.50
20815;DHT22;10568;48.176;16.316;2023-07-08T12:50:58;34.90;81.30
20815;DHT22;10568;48.176;16.316;2023-07-08T12:53:24;35.00;75.60
20815;DHT22;10568;48.176;16.316;2023-07-08T12:55:52;35.20;75.70
20815;DHT22;10568;48.176;16.316;2023-07-08T12:58:25;35.30;75.80
20815;DHT22;10568;48.176;16.316;2023-07-08T13:00:53;35.20;68.70
20815;DHT22;10568;48.176;16.316;2023-07-08T13:03:25;35.10;74.30
20815;DHT22;10568;48.176;16.316;2023-07-08T13:05:53;35.10;75.30
20815;DHT22;10568;48.176;16.316;2023-07-08T13:08:24;34.60;73.00
20815;DHT22;10568;48.176;16.316;2023-07-08T13:10:53;34.50;71.10
20815;DHT22;10568;48.176;16.316;2023-07-08T13:13:23;33.90;77.50
20815;DHT22;10568;48.176;16.316;2023-07-08T13:15:50;33.80;75.30
20815;DHT22;10568;48.176;16.316;2023-07-08T13:18:20;34.00;75.00
20815;DHT22;10568;48.176;16.316;2023-07-08T13:20:52;34.30;73.20
20815;DHT22;10568;48.176;16.316;2023-07-08T13:23:19;34.30;74.30
20815;DHT22;10568;48.176;16.316;2023-07-08T13:25:48;34.30;71.30
20815;DHT22;10568;48.176;16.316;2023-07-08T13:30:55;33.90;72.90
20815;DHT22;10568;48.176;16.316;2023-07-08T13:33:21;33.80;79.90
20815;DHT22;10568;48.176;16.316;2023-07-08T13:35:48;33.50;71.70
20815;DHT22;10568;48.176;16.316;2023-07-08T13:38:20;33.70;82.40
20815;DHT22;10568;48.176;16.316;2023-07-08T13:40:54;33.80;76.00
20815;DHT22;10568;48.176;16.316;2023-07-08T13:43:26;33.90;70.40
20815;DHT22;10568;48.176;16.316;2023-07-08T13:45:53;34.00;74.50
20815;DHT22;10568;48.176;16.316;2023-07-08T13:51:01;34.10;81.00
20815;DHT22;10568;48.176;16.316;2023-07-08T13:53:49;34.10;86.20
20815;DHT22;10568;48.176;16.316;2023-07-08T13:58:47;34.20;76.20
20815;DHT22;10568;48.176;16.316;2023-07-08T14:01:24;34.00;75.70
20815;DHT22;10568;48.176;16.316;2023-07-08T14:03:52;34.00;70.90
20815;DHT22;10568;48.176;16.316;2023-07-08T14:06:24;33.80;72.50
20815;DHT22;10568;48.176;16.316;2023-07-08T14:08:54;33.50;73.10
20815;DHT22;10568;48.176;16.316;2023-07-08T14:11:21;33.20;75.90
20815;DHT22;10568;48.176;16.316;2023-07-08T14:13:47;32.90;88.20
20815;DHT22;10568;48.176;16.316;2023-07-08T14:16:28;32.70;79.20
20815;DHT22;10568;48.176;16.316;2023-07-08T14:18:56;32.60;85.60
20815;DHT22;10568;48.176;16.316;2023-07-08T14:21:22;32.30;72.50
20815;DHT22;10568;48.176;16.316;2023-07-08T14:23:48;32.20;80.40
20815;DHT22;10568;48.176;16.316;2023-07-08T14:26:14;32.10;78.30
20815;DHT22;10568;48.176;16.316;2023-07-08T14:28:40;32.00;80.90
20815;DHT22;10568;48.176;16.316;2023-07-08T14:31:15;31.70;82.50
20815;DHT22;10568;48.176;16.316;2023-07-08T14:33:42;31.60;79.90
20815;DHT22;10568;48.176;16.316;2023-07-08T14:36:11;31.50;83.70
20815;DHT22;10568;48.176;16.316;2023-07-08T14:38:37;31.30;86.50
20815;DHT22;10568;48.176;16.316;2023-07-08T14:41:04;31.20;83.70
20815;DHT22;10568;48.176;16.316;2023-07-08T14:43:31;31.10;80.20
20815;DHT22;10568;48.176;16.316;2023-07-08T14:46:00;31.00;81.20
20815;DHT22;10568;48.176;16.316;2023-07-08T14:48:31;31.00;83.70
20815;DHT22;10568;48.176;16.316;2023-07-08T14:50:58;30.80;74.40
20815;DHT22;10568;48.176;16.316;2023-07-08T14:53:24;30.80;80.10
20815;DHT22;10568;48.176;16.316;2023-07-08T14:55:52;30.60;77.50
20815;DHT22;10568;48.176;16.316;2023-07-08T14:58:25;30.40;80.30
20815;DHT22;10568;48.176;16.316;2023-07-08T15:00:54;30.20;81.40
20815;DHT22;10568;48.176;16.316;2023-07-08T15:03:25;30.20;87.40
20815;DHT22;10568;48.176;16.316;2023-07-08T15:05:51;30.10;86.20
20815;DHT22;10568;48.176;16.316;2023-07-08T15:08:17;30.10;86.20
20815;DHT22;10568;48.176;16.316;2023-07-08T15:10:49;30.10;87.90
20815;DHT22;10568;48.176;16.316;2023-07-08T15:13:18;30.00;78.90
20815;DHT22;10568;48.176;16.316;2023-07-08T15:15:45;29.90;84.70
20815;DHT22;10568;48.176;16.316;2023-07-08T15:18:16;29.80;81.20
20815;DHT22;10568;48.176;16.316;2023-07-08T15:20:42;29.70;83.00
20815;DHT22;10568;48.176;16.316;2023-07-08T15:23:12;29.50;83.90
20815;DHT22;10568;48.176;16.316;2023-07-08T15:25:42;29.50;79.50
20815;DHT22;10568;48.176;16.316;2023-07-08T15:28:42;29.40;81.10
20815;DHT22;10568;48.176;16.316;2023-07-08T15:31:15;29.20;90.60
20815;DHT22;10568;48.176;16.316;2023-07-08T15:33:42;29.00;85.00
20815;DHT22;10568;48.176;16.316;2023-07-08T15:36:10;28.70;82.70
20815;DHT22;10568;48.176;16.316;2023-07-08T15:38:37;28.80;78.40
20815;DHT22;10568;48.176;16.316;2023-07-08T15:41:02;28.80;83.90
20815;DHT22;10568;48.176;16.316;2023-07-08T15:43:29;28.80;82.90
20815;DHT22;10568;48.176;16.316;2023-07-08T15:45:56;28.80;84.20
20815;DHT22;10568;48.176;16.316;2023-07-08T15:48:21;28.80;80.50
20815;DHT22;10568;48.176;16.316;2023-07-08T15:50:47;28.90;79.70
20815;DHT22;10568;48.176;16.316;2023-07-08T15:53:15;28.90;89.90
20815;DHT22;10568;48.176;16.316;2023-07-08T15:55:45;28.90;85.20
20815;DHT22;10568;48.176;16.316;2023-07-08T15:58:22;29.00;88.20
20815;DHT22;10568;48.176;16.316;2023-07-08T16:00:50;29.00;81.20
20815;DHT22;10568;48.176;16.316;2023-07-08T16:03:30;29.10;85.40
20815;DHT22;10568;48.176;16.316;2023-07-08T16:05:58;29.10;84.60
20815;DHT22;10568;48.176;16.316;2023-07-08T16:08:24;29.20;85.00
20815;DHT22;10568;48.176;16.316;2023-07-08T16:11:02;29.10;91.50
20815;DHT22;10568;48.176;16.316;2023-07-08T16:13:34;29.10;81.90
20815;DHT22;10568;48.176;16.316;2023-07-08T16:16:01;29.00;85.00
20815;DHT22;10568;48.176;16.316;2023-07-08T16:18:27;28.90;89.10
20815;DHT22;10568;48.176;16.316;2023-07-08T16:20:52;28.80;88.30
20815;DHT22;10568;48.176;16.316;2023-07-08T16:23:18;28.70;82.80
20815;DHT22;10568;48.176;16.316;2023-07-08T16:25:46;28.70;85.10
20815;DHT22;10568;48.176;16.316;2023-07-08T16:28:35;28.80;83.00
20815;DHT22;10568;48.176;16.316;2023-07-08T16:31:20;28.90;82.20
20815;DHT22;10568;48.176;16.316;2023-07-08T16:33:47;29.00;85.30
20815;DHT22;10568;48.176;16.316;2023-07-08T16:36:15;29.10;81.90
20815;DHT22;10568;48.176;16.316;2023-07-08T16:38:42;29.30;86.30
20815;DHT22;10568;48.176;16.316;2023-07-08T16:41:12;29.40;90.10
20815;DHT22;10568;48.176;16.316;2023-07-08T16:43:38;29.60;81.20
20815;DHT22;10568;48.176;16.316;2023-07-08T16:46:03;29.80;80.00
20815;DHT22;10568;48.176;16.316;2023-07-08T16:48:29;29.70;81.80
20815;DHT22;10568;48.176;16.316;2023-07-08T16:50:55;29.70;82.80
20815;DHT22;10568;48.176;16.316;2023-07-08T16:53:21;29.50;80.70
20815;DHT22;10568;48.176;16.316;2023-07-08T16:55:49;29.50;78.10